Time;durP1;ratioP1;P1;durP2;ratioP2;P2;SDS_P1;SDS_P2;PMS_P1;PMS_P2;Temp;Humidity;BMP_temperature;BMP_pressure;BME280_temperature;BME280_humidity;BME280_pressure;Samples;Min_cycle;Max_cycle;Signal;HPM_P1;HPM_P2
2023/01/02 00:01:43;;;;;;;10.23;6.63;;;;;;;6.55;100.00;95831.34;5051842;28;20178;-54
2023/01/02 00:04:08;;;;;;;10.13;7.63;;;;;;;6.72;100.00;95857.41;5034169;28;20186;-56
2023/01/02 00:06:38;;;;;;;11.70;6.80;;;;;;;6.75;100.00;95869.06;5051790;28;20209;-55
2023/01/02 00:09:05;;;;;;;10.13;6.60;;;;;;;6.67;100.00;95856.81;5051744;28;20223;-57
2023/01/02 00:11:31;;;;;;;10.10;6.40;;;;;;;6.75;100.00;95864.00;5051720;28;20200;-54
2023/01/02 00:13:56;;;;;;;10.87;6.60;;;;;;;6.64;100.00;95857.00;5052103;28;20181;-56
2023/01/02 00:16:22;;;;;;;11.20;6.73;;;;;;;6.66;100.00;95855.19;5051994;28;20556;-57
2023/01/02 00:18:47;;;;;;;10.43;6.30;;;;;;;6.63;100.00;95859.56;5052042;28;20247;-53
2023/01/02 00:21:13;;;;;;;11.03;5.83;;;;;;;6.47;100.00;95846.06;5051624;28;20201;-56
2023/01/02 00:23:39;;;;;;;11.00;7.13;;;;;;;6.31;100.00;95820.75;5051752;28;20186;-55
2023/01/02 00:26:05;;;;;;;19.17;10.03;;;;;;;6.24;100.00;95804.28;5051454;28;20212;-55
2023/01/02 00:28:30;;;;;;;18.47;10.10;;;;;;;6.18;100.00;95793.69;5051595;28;20205;-57
2023/01/02 00:30:56;;;;;;;21.97;12.40;;;;;;;6.15;100.00;95778.66;5050828;28;20288;-56
2023/01/02 00:33:21;;;;;;;20.73;11.93;;;;;;;6.24;100.00;95790.84;5051350;28;20196;-54
2023/01/02 00:35:47;;;;;;;20.57;10.97;;;;;;;6.21;100.00;95789.28;5051444;28;20296;-53
2023/01/02 00:38:13;;;;;;;16.20;9.87;;;;;;;6.23;100.00;95802.66;5051822;28;20201;-55
2023/01/02 00:40:38;;;;;;;15.23;8.93;;;;;;;6.23;100.00;95815.28;5051267;28;20210;-53
2023/01/02 00:43:04;;;;;;;9.83;7.37;;;;;;;6.05;100.00;95802.72;5051549;28;20205;-54
2023/01/02 00:45:30;;;;;;;12.67;7.40;;;;;;;5.92;100.00;95793.22;5033312;28;20220;-53
2023/01/02 00:47:55;;;;;;;10.80;6.87;;;;;;;5.89;100.00;95802.66;5051340;28;20190;-56
2023/01/02 00:50:21;;;;;;;11.30;6.47;;;;;;;6.02;100.00;95823.88;5051209;28;20593;-52
2023/01/02 00:52:46;;;;;;;9.90;6.40;;;;;;;5.99;100.00;95821.53;5051221;28;20190;-56
2023/01/02 00:55:11;;;;;;;10.23;6.17;;;;;;;6.00;100.00;95818.09;5051221;28;20243;-56
2023/01/02 00:57:37;;;;;;;8.63;6.13;;;;;;;6.02;100.00;95828.13;5051338;28;20678;-53
2023/01/02 01:00:04;;;;;;;11.70;6.23;;;;;;;5.97;100.00;95819.94;5051075;28;20213;-53
2023/01/02 01:02:30;;;;;;;10.57;6.57;;;;;;;6.16;100.00;95846.75;5050992;28;20197;-54
2023/01/02 01:04:55;;;;;;;11.00;5.27;;;;;;;6.04;100.00;95839.75;5050847;28;20262;-56
2023/01/02 01:07:21;;;;;;;10.23;6.20;;;;;;;5.96;100.00;95820.84;5051235;28;20224;-55
2023/01/02 01:09:46;;;;;;;10.17;5.67;;;;;;;5.78;100.00;95812.41;5050848;28;20237;-59
2023/01/02 01:12:12;;;;;;;10.20;5.73;;;;;;;5.72;100.00;95810.16;5050976;28;20281;-53
2023/01/02 01:14:37;;;;;;;10.40;5.93;;;;;;;5.84;100.00;95815.50;5050826;28;20646;-54
2023/01/02 01:17:02;;;;;;;11.03;6.13;;;;;;;5.72;100.00;95803.44;5050764;28;20661;-54
2023/01/02 01:19:29;;;;;;;8.57;5.63;;;;;;;5.62;100.00;95788.78;5050873;28;20204;-53
2023/01/02 01:21:54;;;;;;;7.63;5.50;;;;;;;5.78;100.00;95802.31;5050921;28;20288;-56
2023/01/02 01:24:27;;;;;;;9.60;6.40;;;;;;;5.83;100.00;95811.34;5050758;28;20243;-55
2023/01/02 01:26:52;;;;;;;9.70;6.17;;;;;;;5.92;100.00;95822.69;5050800;28;20737;-53
2023/01/02 01:29:18;;;;;;;10.50;5.73;;;;;;;5.77;100.00;95800.69;5050724;28;20596;-55
2023/01/02 01:31:44;;;;;;;12.70;7.23;;;;;;;5.80;100.00;95805.56;5050578;28;20232;-53
2023/01/02 01:34:12;;;;;;;9.77;7.27;;;;;;;5.77;100.00;95791.44;5050763;28;20197;-52
2023/01/02 01:36:38;;;;;;;14.07;8.10;;;;;;;5.77;100.00;95795.66;5050606;28;20217;-52
2023/01/02 01:39:03;;;;;;;15.03;8.30;;;;;;;5.90;100.00;95802.59;5050474;28;20281;-56
2023/01/02 01:41:29;;;;;;;12.70;7.73;;;;;;;5.87;100.00;95804.44;5050527;28;20185;-54
2023/01/02 01:43:56;;;;;;;13.73;7.87;;;;;;;5.98;100.00;95811.50;5054235;28;20192;-53
2023/01/02 01:46:44;;;;;;;12.47;8.20;;;;;;;6.12;100.00;95826.81;5053977;28;20266;-53
2023/01/02 01:49:23;;;;;;;12.37;7.73;;;;;;;6.06;100.00;95817.00;5054368;28;20193;-52
2023/01/02 01:51:54;;;;;;;15.50;8.43;;;;;;;6.01;100.00;95811.34;5053980;28;20188;-54
2023/01/02 01:54:29;;;;;;;13.77;7.90;;;;;;;5.94;100.00;95803.25;5053948;28;20296;-54
2023/01/02 01:56:59;;;;;;;11.97;7.47;;;;;;;5.82;100.00;95806.31;5053813;28;20253;-56
2023/01/02 01:59:26;;;;;;;13.23;7.73;;;;;;;5.86;100.00;95800.28;5053934;28;20595;-54
2023/01/02 02:01:51;;;;;;;11.57;8.00;;;;;;;5.90;100.00;95804.28;5053712;28;20227;-55
2023/01/02 02:04:25;;;;;;;12.93;7.33;;;;;;;5.85;100.00;95793.59;5053708;28;20240;-56
2023/01/02 02:06:52;;;;;;;12.23;6.90;;;;;;;5.94;100.00;95801.53;5053643;28;20606;-53
2023/01/02 02:09:32;;;;;;;13.70;7.07;;;;;;;5.94;100.00;95800.72;5053628;28;20215;-52
2023/01/02 02:11:58;;;;;;;12.20;7.13;;;;;;;6.00;100.00;95810.50;5053563;28;20268;-53
2023/01/02 02:14:23;;;;;;;12.27;7.60;;;;;;;6.00;100.00;95809.72;5053591;28;20213;-55
2023/01/02 02:17:06;;;;;;;9.93;6.60;;;;;;;6.02;100.00;95826.41;5053517;28;20181;-56
2023/01/02 02:19:57;;;;;;;10.97;7.00;;;;;;;6.07;100.00;95832.06;5053624;28;20217;-53
2023/01/02 02:22:58;;;;;;;11.37;7.10;;;;;;;6.13;100.00;95836.00;5052196;28;20197;-56
2023/01/02 02:25:48;;;;;;;10.60;6.07;;;;;;;6.13;100.00;95836.81;5021343;28;20300;-56
2023/01/02 02:28:41;;;;;;;9.70;6.73;;;;;;;6.13;100.00;95839.34;5054214;28;20217;-56
2023/01/02 02:31:21;;;;;;;9.97;6.53;;;;;;;6.10;100.00;95833.63;5053426;28;20205;-53
2023/01/02 02:33:58;;;;;;;11.00;6.70;;;;;;;6.11;100.00;95845.34;5053811;28;20266;-56
2023/01/02 02:36:44;;;;;;;8.87;6.87;;;;;;;6.15;100.00;95846.81;5053572;28;20637;-54
2023/01/02 02:39:13;;;;;;;9.77;7.40;;;;;;;6.09;100.00;95832.81;5053803;28;20189;-55
2023/01/02 02:41:53;;;;;;;12.67;8.00;;;;;;;6.12;100.00;95835.16;5053296;28;20655;-53
2023/01/02 02:44:31;;;;;;;14.43;7.50;;;;;;;6.06;100.00;95835.47;5053270;28;20721;-52
2023/01/02 02:47:06;;;;;;;13.27;8.27;;;;;;;6.02;100.00;95828.94;5052952;28;20786;-52
2023/01/02 02:49:52;;;;;;;13.50;7.50;;;;;;;5.96;100.00;95811.56;5053310;28;20593;-56
2023/01/02 02:52:37;;;;;;;12.70;7.43;;;;;;;5.89;100.00;95806.00;5053088;28;20207;-56
2023/01/02 02:55:11;;;;;;;10.73;6.20;;;;;;;5.80;100.00;95800.53;5052235;28;20278;-56
2023/01/02 02:57:38;;;;;;;10.33;6.73;;;;;;;5.55;100.00;95769.81;5053180;28;20227;-57
2023/01/02 03:00:08;;;;;;;13.77;7.50;;;;;;;5.57;100.00;95773.06;5052850;28;20375;-57
2023/01/02 03:02:33;;;;;;;11.40;6.40;;;;;;;5.58;100.00;95774.69;5053007;28;20231;-54
2023/01/02 03:05:02;;;;;;;14.77;7.43;;;;;;;5.65;100.00;95778.56;5052981;28;20629;-56
2023/01/02 03:07:52;;;;;;;11.33;7.00;;;;;;;5.64;100.00;95770.19;5052816;28;20217;-56
2023/01/02 03:10:40;;;;;;;8.80;6.50;;;;;;;5.63;100.00;95762.69;5052785;28;20193;-56
2023/01/02 03:13:05;;;;;;;11.43;6.57;;;;;;;5.61;100.00;95759.44;5034860;28;20196;-53
2023/01/02 03:15:37;;;;;;;10.50;6.73;;;;;;;5.61;100.00;95767.00;5052764;28;20220;-56
2023/01/02 03:18:39;;;;;;;8.53;5.43;;;;;;;5.42;100.00;95754.44;5052846;28;20188;-54
2023/01/02 03:21:26;;;;;;;7.97;4.80;;;;;;;5.30;100.00;95739.88;5052409;28;20792;-54
2023/01/02 03:23:54;;;;;;;6.90;4.90;;;;;;;5.36;100.00;95758.94;5053005;28;20666;-55
2023/01/02 03:26:25;;;;;;;6.77;4.80;;;;;;;5.40;100.00;95743.59;5052448;28;20213;-52
2023/01/02 03:28:56;;;;;;;7.30;4.83;;;;;;;5.42;100.00;95756.97;5052617;28;20182;-53
2023/01/02 03:31:26;;;;;;;6.63;4.43;;;;;;;5.55;100.00;95790.00;5052550;28;20246;-57
2023/01/02 03:34:00;;;;;;;6.37;4.83;;;;;;;5.52;100.00;95790.94;5052284;28;20197;-53
2023/01/02 03:36:30;;;;;;;8.47;5.17;;;;;;;5.39;100.00;95774.75;5052248;28;20566;-53
2023/01/02 03:39:03;;;;;;;6.73;5.13;;;;;;;5.37;100.00;95768.97;5052483;28;20200;-53
2023/01/02 03:41:45;;;;;;;8.47;4.90;;;;;;;5.41;100.00;95774.69;5052143;28;20193;-52
2023/01/02 03:44:14;;;;;;;10.93;6.30;;;;;;;5.07;100.00;95770.34;5052355;28;20670;-56
2023/01/02 03:46:49;;;;;;;14.33;9.33;;;;;;;4.65;100.00;95750.44;5034295;28;20208;-52
2023/01/02 03:49:25;;;;;;;18.77;10.73;;;;;;;4.67;100.00;95756.22;5052249;28;20605;-54
2023/01/02 03:51:51;;;;;;;20.10;12.10;;;;;;;4.66;100.00;95757.13;5052143;28;20191;-55
2023/01/02 03:54:18;;;;;;;23.30;14.67;;;;;;;4.21;100.00;95716.31;5052268;28;20209;-54
2023/01/02 03:57:22;;;;;;;31.13;17.73;;;;;;;4.03;100.00;95742.25;5052164;28;20197;-55
2023/01/02 03:59:57;;;;;;;33.03;20.00;;;;;;;4.42;100.00;95782.53;5047985;28;20605;-53
2023/01/02 04:02:53;;;;;;;35.13;20.80;;;;;;;4.60;100.00;95794.31;5034094;28;20192;-54
2023/01/02 04:05:33;;;;;;;40.60;23.33;;;;;;;4.69;100.00;95804.81;5050683;28;20223;-53
2023/01/02 04:08:04;;;;;;;45.40;26.47;;;;;;;4.77;100.00;95812.03;5051737;28;20684;-56
2023/01/02 04:10:30;;;;;;;45.73;27.93;;;;;;;4.74;100.00;95810.47;5051694;28;20212;-53
2023/01/02 04:13:01;;;;;;;49.60;25.70;;;;;;;4.86;100.00;95831.78;5051990;28;20247;-55
2023/01/02 04:15:32;;;;;;;46.93;26.20;;;;;;;4.95;100.00;95854.88;5033843;28;20239;-52
2023/01/02 04:18:33;;;;;;;44.57;25.83;;;;;;;4.91;100.00;95845.00;5051607;28;20192;-55
2023/01/02 04:21:04;;;;;;;48.80;27.63;;;;;;;4.95;100.00;95859.09;5047673;28;20361;-56
2023/01/02 04:23:32;;;;;;;56.43;31.03;;;;;;;4.93;100.00;95846.56;5052229;28;20188;-55
2023/01/02 04:26:15;;;;;;;64.23;36.13;;;;;;;4.90;100.00;95836.63;5051415;28;20591;-56
2023/01/02 04:28:41;;;;;;;56.93;31.03;;;;;;;4.91;100.00;95837.44;5033917;28;20720;-52
2023/01/02 04:31:14;;;;;;;55.57;32.70;;;;;;;4.90;100.00;95830.78;5051522;28;20196;-56
2023/01/02 04:34:04;;;;;;;56.60;31.27;;;;;;;4.90;100.00;95841.69;5051363;28;20195;-56
2023/01/02 04:36:30;;;;;;;62.87;34.00;;;;;;;5.04;100.00;95854.50;5050776;28;20208;-55
2023/01/02 04:38:55;;;;;;;34.03;20.27;;;;;;;5.07;100.00;95851.00;5051311;28;20196;-55
2023/01/02 04:41:25;;;;;;;51.60;28.20;;;;;;;4.90;100.00;95830.78;5051535;28;20192;-53
2023/01/02 04:43:55;;;;;;;33.83;17.90;;;;;;;5.00;100.00;95837.03;5051805;28;20200;-55
2023/01/02 04:46:22;;;;;;;18.70;10.53;;;;;;;4.82;100.00;95818.53;5051252;28;20748;-52
2023/01/02 04:48:48;;;;;;;39.57;21.27;;;;;;;4.76;100.00;95811.22;5051816;28;20191;-52
2023/01/02 04:51:13;;;;;;;34.60;19.00;;;;;;;4.84;100.00;95814.25;5051073;28;20210;-57
2023/01/02 04:53:38;;;;;;;20.63;11.03;;;;;;;4.94;100.00;95828.06;5051362;28;20654;-53
2023/01/02 04:56:04;;;;;;;12.67;8.40;;;;;;;5.03;100.00;95842.75;5051087;28;20225;-55
2023/01/02 04:58:30;;;;;;;15.83;8.87;;;;;;;5.03;100.00;95842.75;5051319;28;20199;-54
2023/01/02 05:00:55;;;;;;;14.40;9.47;;;;;;;5.11;100.00;95847.44;5051120;28;20207;-55
2023/01/02 05:03:21;;;;;;;13.23;8.70;;;;;;;5.02;100.00;95845.34;5051031;28;20593;-53
2023/01/02 05:05:46;;;;;;;11.53;7.43;;;;;;;5.04;100.00;95846.94;5050868;28;20219;-56
2023/01/02 05:08:12;;;;;;;10.00;7.03;;;;;;;4.97;100.00;95837.16;5050914;28;20196;-56
2023/01/02 05:10:37;;;;;;;12.37;6.83;;;;;;;5.00;100.00;95837.03;5050691;28;20247;-55
2023/01/02 05:13:03;;;;;;;13.07;7.10;;;;;;;4.92;100.00;95829.84;5051116;28;20193;-53
2023/01/02 05:15:28;;;;;;;13.03;7.17;;;;;;;4.92;100.00;95829.00;5050743;28;20235;-53
2023/01/02 05:17:55;;;;;;;10.53;6.53;;;;;;;4.89;100.00;95821.56;5050824;28;20200;-53
2023/01/02 05:20:20;;;;;;;11.63;6.37;;;;;;;4.88;100.00;95813.22;5050935;28;20207;-52
2023/01/02 05:25:34;;;;;;;13.13;8.30;;;;;;;4.79;100.00;95782.56;5050615;28;20748;-56
2023/01/02 05:28:01;;;;;;;13.43;7.97;;;;;;;4.71;100.00;95760.22;5050976;28;20192;-53
2023/01/02 05:30:27;;;;;;;15.60;8.80;;;;;;;4.69;100.00;95751.94;5050911;28;20248;-53
2023/01/02 05:32:52;;;;;;;13.07;8.00;;;;;;;4.74;100.00;95767.66;5051193;28;20228;-54
2023/01/02 05:35:18;;;;;;;14.30;8.80;;;;;;;4.72;100.00;95774.47;5050721;28;20207;-55
2023/01/02 05:37:43;;;;;;;16.00;7.70;;;;;;;4.73;100.00;95782.81;5050874;28;20225;-57
2023/01/02 05:40:09;;;;;;;13.63;7.47;;;;;;;4.70;100.00;95773.72;5050595;28;20201;-54
2023/01/02 05:42:34;;;;;;;14.40;8.23;;;;;;;4.78;100.00;95781.75;5050811;28;20196;-53
2023/01/02 05:45:00;;;;;;;14.47;7.63;;;;;;;4.89;100.00;95788.81;5050400;28;20235;-53
2023/01/02 05:47:25;;;;;;;14.37;8.03;;;;;;;4.94;100.00;95789.44;5050338;28;20239;-57
2023/01/02 05:49:51;;;;;;;12.83;7.10;;;;;;;5.01;100.00;95801.69;5050443;28;20733;-53
2023/01/02 05:52:16;;;;;;;13.20;7.70;;;;;;;5.08;100.00;95814.84;5050460;28;20234;-56
2023/01/02 05:54:41;;;;;;;12.07;7.83;;;;;;;5.09;100.00;95819.81;5050444;28;20209;-57
2023/01/02 05:57:07;;;;;;;13.33;7.87;;;;;;;5.16;100.00;95834.66;5050516;28;20192;-56
2023/01/02 05:59:32;;;;;;;15.17;8.77;;;;;;;5.17;100.00;95838.81;5032560;28;20263;-54
2023/01/02 06:01:58;;;;;;;17.13;9.27;;;;;;;5.22;100.00;95852.84;5032543;28;20284;-56
2023/01/02 06:04:23;;;;;;;12.93;8.27;;;;;;;5.18;100.00;95845.47;5050230;28;20239;-53
2023/01/02 06:06:49;;;;;;;16.37;7.73;;;;;;;5.25;100.00;95861.97;5050012;28;20206;-52
2023/01/02 06:09:15;;;;;;;7.20;4.73;;;;;;;4.98;100.00;95847.19;5050092;28;20304;-56
2023/01/02 06:11:42;;;;;;;8.97;5.00;;;;;;;5.05;100.00;95875.44;5050107;28;20186;-53
2023/01/02 06:14:09;;;;;;;7.63;4.73;;;;;;;4.84;100.00;95866.31;5032297;28;20283;-56
2023/01/02 06:16:35;;;;;;;8.43;5.00;;;;;;;4.69;100.00;95847.63;5050401;28;20200;-56
2023/01/02 06:19:01;;;;;;;14.50;8.90;;;;;;;4.85;100.00;95901.50;5050443;28;20276;-52
2023/01/02 06:21:26;;;;;;;38.30;20.37;;;;;;;4.50;100.00;95908.91;5050181;28;20192;-53
2023/01/02 06:23:55;;;;;;;47.50;26.40;;;;;;;4.23;100.00;95889.00;5050097;28;20196;-56
2023/01/02 06:26:21;;;;;;;51.47;27.07;;;;;;;3.98;100.00;95885.81;5049916;28;20216;-54
2023/01/02 06:28:50;;;;;;;47.67;25.97;;;;;;;3.88;100.00;95882.03;5050112;28;20199;-56
2023/01/02 06:31:18;;;;;;;43.43;23.40;;;;;;;3.83;100.00;95890.63;5053236;28;20203;-55
2023/01/02 06:33:44;;;;;;;38.03;21.43;;;;;;;3.64;100.00;95867.88;5053190;28;20209;-55
2023/01/02 06:36:12;;;;;;;37.60;19.40;;;;;;;3.31;100.00;95828.97;5053220;28;20704;-53
2023/01/02 06:38:37;;;;;;;40.00;18.80;;;;;;;3.11;100.00;95824.66;5053451;28;20187;-54
2023/01/02 06:41:05;;;;;;;38.87;19.97;;;;;;;2.98;100.00;95828.50;5035282;28;20213;-56
2023/01/02 06:43:31;;;;;;;38.23;19.77;;;;;;;3.01;100.00;95833.41;5053488;28;20246;-56
2023/01/02 06:45:58;;;;;;;37.67;18.37;;;;;;;3.07;100.00;95830.69;5053218;28;20671;-56
2023/01/02 06:48:24;;;;;;;31.03;17.23;;;;;;;3.21;100.00;95830.97;5053057;28;20231;-57
2023/01/02 06:50:50;;;;;;;34.70;16.57;;;;;;;3.44;100.00;95832.63;5053052;28;20291;-56
2023/01/02 06:53:15;;;;;;;31.27;16.63;;;;;;;3.41;100.00;95833.56;5035087;28;20201;-55
2023/01/02 06:55:55;;;;;;;34.23;17.30;;;;;;;3.36;100.00;95837.13;5053011;28;20217;-57
2023/01/02 06:58:21;;;;;;;31.60;15.63;;;;;;;3.50;100.00;95831.56;5053313;28;20223;-55
2023/01/02 07:00:47;;;;;;;39.57;17.93;;;;;;;3.76;100.00;95837.22;5052766;28;20691;-53
2023/01/02 07:03:13;;;;;;;29.50;16.17;;;;;;;3.92;100.00;95835.75;5053076;28;20281;-53
2023/01/02 07:05:39;;;;;;;36.83;15.50;;;;;;;4.01;100.00;95845.47;5052469;28;20265;-53
2023/01/02 07:08:04;;;;;;;33.03;16.40;;;;;;;4.14;100.00;95850.81;5052983;28;20182;-56
2023/01/02 07:10:30;;;;;;;35.00;16.40;;;;;;;4.23;100.00;95850.44;5052638;28;20202;-57
2023/01/02 07:12:57;;;;;;;32.20;14.83;;;;;;;4.27;100.00;95839.34;5052727;28;20208;-52
2023/01/02 07:15:22;;;;;;;36.90;16.40;;;;;;;4.37;100.00;95838.09;5052596;28;20199;-53
2023/01/02 07:17:47;;;;;;;44.70;18.53;;;;;;;4.40;100.00;95843.03;5034585;28;20191;-56
2023/01/02 07:20:13;;;;;;;35.43;16.17;;;;;;;4.39;100.00;95848.91;5052353;28;20224;-54
2023/01/02 07:22:38;;;;;;;45.97;17.57;;;;;;;4.42;100.00;95843.78;5052342;28;20199;-55
2023/01/02 07:25:04;;;;;;;30.87;15.53;;;;;;;4.26;100.00;95846.09;5034468;28;20232;-52
2023/01/02 07:27:30;;;;;;;34.23;15.83;;;;;;;4.33;100.00;95839.09;5052605;28;20290;-55
2023/01/02 07:29:55;;;;;;;40.30;16.93;;;;;;;4.51;100.00;95840.03;5052462;28;20250;-56
2023/01/02 07:32:21;;;;;;;31.03;14.73;;;;;;;4.71;100.00;95852.59;5052382;28;20199;-54
2023/01/02 07:34:46;;;;;;;28.57;15.37;;;;;;;4.76;100.00;95860.78;5052255;28;20693;-54
2023/01/02 07:37:12;;;;;;;30.20;15.57;;;;;;;5.03;100.00;95870.47;5052336;28;20232;-55
2023/01/02 07:39:37;;;;;;;30.63;14.70;;;;;;;5.28;100.00;95882.81;5052088;28;20213;-57
2023/01/02 07:42:03;;;;;;;31.60;14.93;;;;;;;5.48;100.00;95892.00;5052095;28;20197;-58
2023/01/02 07:44:28;;;;;;;29.70;15.23;;;;;;;5.70;100.00;95890.16;5034386;28;20210;-54
2023/01/02 07:46:54;;;;;;;25.33;14.60;;;;;;;5.99;100.00;95927.50;5051949;28;20213;-55
2023/01/02 07:49:19;;;;;;;26.57;14.40;;;;;;;6.19;100.00;95934.16;5052109;28;20216;-54
2023/01/02 07:51:44;;;;;;;34.90;14.17;;;;;;;7.00;100.00;95838.31;5051914;28;20565;-55
2023/01/02 07:54:10;;;;;;;26.30;15.23;;;;;;;7.78;100.00;95851.78;5051982;28;20234;-57
2023/01/02 07:56:35;;;;;;;23.63;13.27;;;;;;;7.44;100.00;95950.63;5051998;28;20259;-57
2023/01/02 07:59:01;;;;;;;23.23;12.73;;;;;;;7.39;100.00;96003.97;5051746;28;20209;-54
2023/01/02 08:01:26;;;;;;;25.27;12.80;;;;;;;7.54;100.00;96007.44;5051873;28;20609;-57
2023/01/02 08:03:51;;;;;;;20.50;12.50;;;;;;;7.56;100.00;96006.47;5051777;28;20211;-54
2023/01/02 08:06:18;;;;;;;19.33;11.70;;;;;;;7.78;100.00;96044.16;5051717;28;20698;-56
2023/01/02 08:08:43;;;;;;;16.33;10.33;;;;;;;7.80;100.00;96044.88;5052214;28;20554;-56
2023/01/02 08:11:18;;;;;;;15.27;10.27;;;;;;;7.82;100.00;96052.44;5051846;28;20284;-56
2023/01/02 08:13:43;;;;;;;13.67;8.73;;;;;;;8.03;100.00;96061.41;5051950;28;20189;-54
2023/01/02 08:16:14;;;;;;;13.60;9.10;;;;;;;8.04;100.00;96052.94;5051676;28;20271;-55
2023/01/02 08:18:39;;;;;;;17.33;9.57;;;;;;;8.14;100.00;96054.09;5051580;28;20226;-57
2023/01/02 08:21:05;;;;;;;13.70;8.73;;;;;;;8.51;100.00;96074.06;5051414;28;20274;-56
2023/01/02 08:23:31;;;;;;;16.20;9.27;;;;;;;8.85;100.00;96103.44;5051695;28;20685;-53
2023/01/02 08:25:58;;;;;;;16.53;9.67;;;;;;;9.06;100.00;96107.34;5033788;28;20300;-55
2023/01/02 08:28:24;;;;;;;17.17;11.57;;;;;;;9.11;100.00;96085.91;5051496;28;20189;-54
2023/01/02 08:30:49;;;;;;;19.77;12.80;;;;;;;9.38;100.00;96096.22;5051442;28;20197;-54
2023/01/02 08:33:14;;;;;;;23.50;13.80;;;;;;;9.72;100.00;96106.06;5033467;28;20193;-56
2023/01/02 08:35:40;;;;;;;27.80;14.97;;;;;;;9.78;100.00;96093.00;5051350;28;20277;-57
2023/01/02 08:38:05;;;;;;;24.43;14.93;;;;;;;10.32;100.00;96133.91;5051583;28;20192;-57
2023/01/02 08:40:31;;;;;;;24.27;15.20;;;;;;;10.63;100.00;96134.47;5051216;28;20317;-54
2023/01/02 08:42:56;;;;;;;24.17;15.47;;;;;;;11.02;100.00;96179.53;5051390;28;20185;-55
2023/01/02 08:45:21;;;;;;;27.10;15.27;;;;;;;11.03;100.00;96183.72;5051122;28;20252;-57
2023/01/02 08:47:47;;;;;;;25.27;15.10;;;;;;;11.35;100.00;96185.06;5051178;28;20683;-56
2023/01/02 08:50:12;;;;;;;26.40;14.83;;;;;;;11.56;100.00;96188.81;5051091;28;20201;-56
2023/01/02 08:52:38;;;;;;;27.73;15.93;;;;;;;11.82;100.00;96199.88;5050897;28;20185;-57
2023/01/02 08:55:04;;;;;;;25.80;15.60;;;;;;;11.97;100.00;96188.72;5051040;28;20201;-56
2023/01/02 08:57:30;;;;;;;29.27;17.57;;;;;;;12.24;100.00;96221.78;5051263;28;20185;-56
2023/01/02 08:59:56;;;;;;;31.73;18.23;;;;;;;12.34;100.00;96215.16;5050930;28;20206;-57
2023/01/02 09:02:21;;;;;;;30.00;17.13;;;;;;;12.29;100.00;96196.78;5051169;28;20203;-56
2023/01/02 09:04:47;;;;;;;31.03;17.77;;;;;;;12.56;99.83;96192.38;5050557;28;20201;-56
2023/01/02 09:07:12;;;;;;;31.30;18.47;;;;;;;13.28;100.00;96141.34;5050696;28;20233;-56
2023/01/02 09:09:38;;;;;;;30.90;19.57;;;;;;;13.41;94.66;96274.91;5050731;28;20247;-56
2023/01/02 09:12:03;;;;;;;31.53;19.47;;;;;;;13.38;85.41;96253.88;5050799;28;20200;-55
2023/01/02 09:14:29;;;;;;;33.27;21.63;;;;;;;13.42;81.54;96257.84;5050459;28;20231;-55
2023/01/02 09:16:56;;;;;;;34.40;21.60;;;;;;;13.47;81.20;96248.94;5050815;28;20185;-58
2023/01/02 09:19:23;;;;;;;35.43;21.63;;;;;;;13.63;78.81;96247.88;5050656;28;20244;-58
2023/01/02 09:21:48;;;;;;;38.93;23.40;;;;;;;13.76;77.31;96259.66;5050569;28;20697;-58
2023/01/02 09:24:14;;;;;;;34.97;22.90;;;;;;;13.73;77.30;96241.19;5050635;28;20244;-59
2023/01/02 09:26:41;;;;;;;36.20;22.30;;;;;;;13.91;75.86;96229.63;5050277;28;20744;-59
2023/01/02 09:29:08;;;;;;;31.20;21.20;;;;;;;14.03;71.17;96270.47;5050512;28;20205;-56
2023/01/02 09:31:34;;;;;;;37.10;22.20;;;;;;;14.07;71.96;96248.03;5050676;28;20189;-53
2023/01/02 09:33:59;;;;;;;38.27;22.83;;;;;;;14.10;71.36;96245.25;5049487;28;20568;-54
2023/01/02 09:36:25;;;;;;;36.10;22.93;;;;;;;14.03;71.93;96231.28;5050296;28;20196;-54
2023/01/02 09:38:56;;;;;;;36.73;23.27;;;;;;;14.26;71.35;96228.66;5050239;28;20334;-54
2023/01/02 09:41:56;;;;;;;37.90;22.90;;;;;;;14.42;70.48;96238.63;5032459;28;20239;-54
2023/01/02 09:44:32;;;;;;;34.93;23.80;;;;;;;14.61;69.14;96261.06;5050028;28;20221;-60
2023/01/02 09:47:09;;;;;;;36.93;23.97;;;;;;;14.42;69.84;96225.84;5050264;28;20251;-57
2023/01/02 09:49:46;;;;;;;42.75;25.08;;;;;;;14.48;71.60;96186.16;5047977;28;20224;-54
2023/01/02 09:52:19;;;;;;;39.53;24.00;;;;;;;14.40;70.88;96189.31;5048071;28;20263;-57
2023/01/02 09:54:45;;;;;;;39.65;22.27;;;;;;;14.47;70.40;96202.44;5049046;28;20248;-56
2023/01/02 09:57:23;;;;;;;37.53;23.23;;;;;;;14.73;68.82;96225.13;5049105;28;20209;-58
2023/01/02 10:00:06;;;;;;;38.35;23.75;;;;;;;14.68;69.31;96211.88;5049172;28;20233;-54
2023/01/02 10:03:05;;;;;;;33.90;22.47;;;;;;;14.87;67.93;96230.03;5030480;28;20192;-58
2023/01/02 10:05:36;;;;;;;38.35;24.05;;;;;;;14.81;68.24;96209.19;5053075;28;20213;-56
2023/01/02 10:08:36;;;;;;;39.73;23.57;;;;;;;14.90;68.04;96211.88;5053864;28;20197;-58
2023/01/02 10:11:23;;;;;;;39.03;23.70;;;;;;;15.01;67.60;96206.72;5053735;28;20213;-57
2023/01/02 10:13:51;;;;;;;35.65;23.10;;;;;;;15.11;67.08;96217.88;5053679;28;20660;-56
2023/01/02 10:16:22;;;;;;;30.77;21.95;;;;;;;15.19;67.02;96219.84;5053432;28;20209;-57
2023/01/02 10:18:53;;;;;;;37.17;22.67;;;;;;;15.36;65.76;96232.16;5053671;28;20189;-58
2023/01/02 10:21:32;;;;;;;35.65;23.73;;;;;;;15.60;63.98;96260.22;5053622;28;20181;-54
2023/01/02 10:24:05;;;;;;;40.13;24.13;;;;;;;15.87;63.12;96283.69;5054156;28;20186;-53
2023/01/02 10:26:36;;;;;;;39.28;24.98;;;;;;;15.91;62.98;96269.69;5053370;28;20233;-55
2023/01/02 10:31:33;;;;;;;45.17;25.27;;;;;;;15.95;62.48;96271.88;5080530;22;20236;-55
2023/01/02 10:34:01;;;;;;;39.47;26.00;;;;;;;15.88;64.13;96213.47;5073437;28;20419;-55
2023/01/02 10:36:31;;;;;;;38.72;25.27;;;;;;;15.86;62.71;96253.84;5073287;28;20188;-57
2023/01/02 10:39:03;;;;;;;43.33;27.38;;;;;;;15.97;62.62;96251.22;5073236;28;20213;-55
2023/01/02 10:41:29;;;;;;;41.55;26.98;;;;;;;16.03;61.50;96268.69;5073212;28;20189;-57
2023/01/02 10:44:20;;;;;;;43.97;26.77;;;;;;;15.98;63.35;96224.63;5073243;28;20304;-54
2023/01/02 10:46:46;;;;;;;44.50;25.95;;;;;;;15.98;62.55;96222.88;5072998;28;20220;-59
2023/01/02 10:49:12;;;;;;;42.28;26.90;;;;;;;16.08;61.93;96240.13;5073210;28;20185;-54
2023/01/02 10:51:44;;;;;;;50.08;26.00;;;;;;;15.89;63.17;96192.03;5073013;28;20193;-54
2023/01/02 10:54:10;;;;;;;43.85;27.13;;;;;;;16.10;62.06;96233.91;5073030;28;20193;-53
2023/01/02 10:56:37;;;;;;;33.95;24.17;;;;;;;16.15;62.64;96211.25;5072954;28;20226;-53
2023/01/02 10:59:15;;;;;;;41.47;27.42;;;;;;;16.28;62.05;96221.34;5080303;22;20232;-54
2023/01/02 11:01:52;;;;;;;38.92;25.40;;;;;;;16.14;61.74;96196.00;5072928;28;20188;-54
2023/01/02 11:04:29;;;;;;;41.50;26.13;;;;;;;16.27;61.49;96184.59;5054768;28;20257;-55
2023/01/02 11:06:59;;;;;;;34.47;24.60;;;;;;;16.40;61.35;96180.03;5072694;28;20210;-54
2023/01/02 11:09:27;;;;;;;38.95;26.08;;;;;;;16.26;60.21;96198.34;5073058;28;20209;-57
2023/01/02 11:11:55;;;;;;;36.72;26.02;;;;;;;16.13;62.77;96133.59;5072683;28;20185;-56
2023/01/02 11:14:23;;;;;;;38.55;25.92;;;;;;;16.10;63.39;96121.00;5072996;28;20292;-57
2023/01/02 11:16:49;;;;;;;39.53;26.05;;;;;;;16.24;62.31;96138.63;5072493;28;20238;-55
2023/01/02 11:19:20;;;;;;;44.72;26.48;;;;;;;16.21;61.67;96113.22;5072863;28;20212;-54
2023/01/02 11:21:47;;;;;;;36.38;25.27;;;;;;;16.53;61.10;96149.88;5072746;28;20184;-54
2023/01/02 11:24:18;;;;;;;40.50;25.73;;;;;;;16.42;60.65;96126.81;5072601;28;20223;-57
2023/01/02 11:26:48;;;;;;;69.72;38.67;;;;;;;16.66;60.81;96155.59;5072246;28;20720;-54
2023/01/02 11:29:20;;;;;;;75.55;40.85;;;;;;;16.74;60.24;96167.81;5072616;28;20221;-57
2023/01/02 11:31:53;;;;;;;46.05;30.08;;;;;;;16.63;60.96;96130.19;5072258;28;20290;-54
2023/01/02 11:34:24;;;;;;;43.55;28.95;;;;;;;16.48;60.71;96131.44;5072598;28;20209;-55
2023/01/02 11:37:10;;;;;;;58.88;33.38;;;;;;;16.47;61.37;96106.72;5072171;28;20185;-59
2023/01/02 11:39:36;;;;;;;102.97;50.58;;;;;;;16.71;60.86;96109.78;5072419;28;20223;-55